createdAt,value
2023-03-08T00:00:12.578Z,98246.63
2023-03-08T00:02:39.860Z,98247.69
2023-03-08T00:05:07.683Z,98247.78
2023-03-08T00:07:36.522Z,98248.75
2023-03-08T00:10:04.205Z,98252.25
2023-03-08T00:12:31.779Z,98259.88
2023-03-08T00:14:58.963Z,98251.69
2023-03-08T00:17:26.513Z,98258.28
2023-03-08T00:19:53.831Z,98256.84
2023-03-08T00:22:21.050Z,98258.88
2023-03-08T00:24:49.841Z,98254.41
2023-03-08T00:27:17.043Z,98255.78
2023-03-08T00:29:44.202Z,98254.78
2023-03-08T00:32:11.412Z,98250.22
2023-03-08T00:34:38.973Z,98255.56
2023-03-08T00:37:06.236Z,98259.06
2023-03-08T00:39:33.793Z,98266.81
2023-03-08T00:42:02.392Z,98264.59
2023-03-08T00:44:29.959Z,98267.16
2023-03-08T00:46:57.561Z,98269.63
2023-03-08T00:49:24.846Z,98259.66
2023-03-08T00:51:52.223Z,98267.88
2023-03-08T00:54:19.479Z,98258.72
2023-03-08T00:56:46.626Z,98256.22
2023-03-08T00:59:15.303Z,98264.66
2023-03-08T01:01:42.847Z,98262.25
2023-03-08T01:04:10.184Z,98261.53
2023-03-08T01:06:37.500Z,98262.59
2023-03-08T01:09:05.138Z,98255.91
2023-03-08T01:11:35.484Z,98261.06
2023-03-08T01:14:03.304Z,98258.56
2023-03-08T01:16:33.475Z,98268.13
2023-03-08T01:19:02.207Z,98266.66
2023-03-08T01:21:30.427Z,98263.91
2023-03-08T01:23:58.163Z,98256.69
2023-03-08T01:26:27.341Z,98261.50
2023-03-08T01:28:57.782Z,98247.97
2023-03-08T01:31:26.749Z,98247.28
2023-03-08T01:33:57.414Z,98250.41
2023-03-08T01:36:26.951Z,98235.41
2023-03-08T01:38:54.304Z,98255.16
2023-03-08T01:41:23.842Z,98253.88
2023-03-08T01:43:52.516Z,98247.59
2023-03-08T01:46:29.261Z,98243.84
2023-03-08T01:49:27.432Z,98235.97
2023-03-08T01:52:02.894Z,98240.72
2023-03-08T01:54:33.898Z,98244.56
2023-03-08T01:57:04.673Z,98243.66
2023-03-08T01:59:33.815Z,98237.19
2023-03-08T02:02:03.031Z,98253.38
2023-03-08T02:04:33.438Z,98250.28
2023-03-08T02:07:00.790Z,98251.16
2023-03-08T02:09:28.250Z,98260.81
2023-03-08T02:12:00.395Z,98263.16
2023-03-08T02:14:29.143Z,98262.13
2023-03-08T02:16:56.862Z,98259.53
2023-03-08T02:19:32.393Z,98266.03
2023-03-08T02:22:08.461Z,98256.91
2023-03-08T02:24:37.197Z,98258.34
2023-03-08T02:27:08.328Z,98248.44
2023-03-08T02:29:35.641Z,98256.34
2023-03-08T02:32:02.837Z,98255.38
2023-03-08T02:34:30.372Z,98257.81
2023-03-08T02:36:58.959Z,98252.56
2023-03-08T02:39:26.373Z,98253.16
2023-03-08T02:41:57.186Z,98260.47
2023-03-08T02:44:24.567Z,98262.56
2023-03-08T02:46:54.089Z,98268.03
2023-03-08T02:49:21.617Z,98264.06
2023-03-08T02:51:48.990Z,98273.13
2023-03-08T02:54:17.114Z,98265.97
2023-03-08T02:56:45.507Z,98269.25
2023-03-08T02:59:15.671Z,98275.03
2023-03-08T03:01:44.737Z,98283.59
2023-03-08T03:04:12.358Z,98283.00
2023-03-08T03:06:39.674Z,98290.59
2023-03-08T03:09:08.694Z,98282.66
2023-03-08T03:11:36.390Z,98287.88
2023-03-08T03:14:03.756Z,98287.06
2023-03-08T03:16:37.943Z,98287.25
2023-03-08T03:19:05.294Z,98292.03
2023-03-08T03:21:33.058Z,98285.53
2023-03-08T03:24:00.546Z,98278.69
2023-03-08T03:26:35.492Z,98281.69
2023-03-08T03:29:03.156Z,98288.72
2023-03-08T03:31:34.527Z,98267.84
2023-03-08T03:34:04.199Z,98274.44
2023-03-08T03:36:32.206Z,98277.50
2023-03-08T03:38:59.980Z,98271.38
2023-03-08T03:41:28.611Z,98269.47
2023-03-08T03:44:03.028Z,98271.03
2023-03-08T03:46:31.055Z,98266.72
2023-03-08T03:48:59.624Z,98263.09
2023-03-08T03:51:34.053Z,98259.59
2023-03-08T03:54:24.683Z,98265.00
2023-03-08T03:56:52.420Z,98263.97
2023-03-08T03:59:24.420Z,98262.94
2023-03-08T04:01:53.830Z,98271.16
2023-03-08T04:04:32.870Z,98269.41
2023-03-08T04:07:02.130Z,98267.78
2023-03-08T04:09:35.895Z,98272.53
2023-03-08T04:12:08.761Z,98275.84
2023-03-08T04:14:39.706Z,98276.53
2023-03-08T04:17:08.127Z,98286.84
2023-03-08T04:19:43.467Z,98284.31
2023-03-08T04:22:14.066Z,98285.97
2023-03-08T04:24:49.266Z,98285.34
2023-03-08T04:27:21.872Z,98286.94
2023-03-08T04:29:49.306Z,98298.41
2023-03-08T04:32:17.555Z,98299.06
2023-03-08T04:34:49.743Z,98305.22
2023-03-08T04:37:22.010Z,98303.38
2023-03-08T04:39:53.806Z,98308.28
2023-03-08T04:42:21.207Z,98309.75
2023-03-08T04:44:49.053Z,98310.63
2023-03-08T04:47:20.664Z,98308.00
2023-03-08T04:49:48.715Z,98319.41
2023-03-08T04:52:16.159Z,98324.09
2023-03-08T04:54:45.818Z,98330.53
2023-03-08T04:57:21.024Z,98327.59
2023-03-08T04:59:50.239Z,98331.41
2023-03-08T05:02:17.686Z,98313.63
2023-03-08T05:04:46.930Z,98317.50
2023-03-08T05:07:14.333Z,98318.94
2023-03-08T05:09:43.078Z,98318.66
2023-03-08T05:12:12.311Z,98312.63
2023-03-08T05:14:50.458Z,98306.63
2023-03-08T05:17:18.350Z,98310.56
2023-03-08T05:19:45.695Z,98303.59
2023-03-08T05:22:16.772Z,98303.94
2023-03-08T05:24:49.053Z,98307.63
2023-03-08T05:27:19.088Z,98294.13
2023-03-08T05:29:47.594Z,98297.00
2023-03-08T05:32:15.186Z,98287.72
2023-03-08T05:34:42.870Z,98297.63
2023-03-08T05:37:14.942Z,98298.03
2023-03-08T05:39:44.236Z,98296.25
2023-03-08T05:42:23.187Z,98288.69
2023-03-08T05:44:50.457Z,98287.44
2023-03-08T05:47:22.494Z,98288.47
2023-03-08T05:49:49.771Z,98290.97
2023-03-08T05:52:18.143Z,98295.59
2023-03-08T05:54:46.191Z,98302.69
2023-03-08T05:57:18.444Z,98304.31
2023-03-08T05:59:47.871Z,98300.03
2023-03-08T06:02:18.607Z,98308.91
2023-03-08T06:04:49.516Z,98288.19
2023-03-08T06:07:20.386Z,98305.25
2023-03-08T06:09:56.536Z,98306.38
2023-03-08T06:12:24.925Z,98303.19
2023-03-08T06:14:57.271Z,98299.75
2023-03-08T06:17:28.032Z,98306.63
2023-03-08T06:19:57.005Z,98302.50
2023-03-08T06:22:24.596Z,98304.84
2023-03-08T06:24:53.427Z,98303.03
2023-03-08T06:27:28.313Z,98293.19
2023-03-08T06:30:00.534Z,98297.38
2023-03-08T06:32:28.664Z,98280.63
2023-03-08T06:34:56.049Z,98287.03
2023-03-08T06:37:23.451Z,98284.41
2023-03-08T06:39:51.173Z,98276.75
2023-03-08T06:42:19.862Z,98277.06
2023-03-08T06:44:50.036Z,98261.31
2023-03-08T06:47:19.042Z,98258.56
2023-03-08T06:49:47.034Z,98252.16
2023-03-08T06:52:14.711Z,98246.34
2023-03-08T06:54:41.994Z,98237.19
2023-03-08T06:57:12.087Z,98245.16
2023-03-08T06:59:39.365Z,98243.69
2023-03-08T07:02:07.079Z,98240.03
2023-03-08T07:04:35.754Z,98227.34
2023-03-08T07:07:03.195Z,98220.75
2023-03-08T07:09:30.529Z,98220.75
2023-03-08T07:11:57.806Z,98223.50
2023-03-08T07:14:25.398Z,98215.97
2023-03-08T07:16:52.979Z,98212.66
2023-03-08T07:19:20.312Z,98199.13
2023-03-08T07:21:48.967Z,98208.47
2023-03-08T07:24:16.425Z,98206.88
2023-03-08T07:26:43.831Z,98207.75
2023-03-08T07:29:11.369Z,98206.88
2023-03-08T07:31:38.792Z,98197.84
2023-03-08T07:34:06.058Z,98206.22
2023-03-08T07:36:33.709Z,98213.47
2023-03-08T07:39:02.447Z,98208.22
2023-03-08T07:41:32.045Z,98207.03
2023-03-08T07:43:59.486Z,98209.19
2023-03-08T07:46:28.340Z,98211.53
2023-03-08T07:48:55.648Z,98201.28
2023-03-08T07:51:23.047Z,98203.41
2023-03-08T07:53:51.943Z,98188.63
2023-03-08T07:56:20.698Z,98203.31
2023-03-08T07:58:48.136Z,98211.69
2023-03-08T08:01:15.453Z,98215.44
2023-03-08T08:03:44.600Z,98214.91
2023-03-08T08:06:11.939Z,98197.78
2023-03-08T08:08:39.535Z,98188.34
2023-03-08T08:11:14.371Z,98203.69
2023-03-08T08:13:43.210Z,98193.00
2023-03-08T08:16:10.647Z,98187.56
2023-03-08T08:18:38.233Z,98186.38
2023-03-08T08:21:07.712Z,98186.81
2023-03-08T08:23:36.252Z,98184.94
2023-03-08T08:26:06.152Z,98189.66
2023-03-08T08:28:34.208Z,98191.97
2023-03-08T08:31:05.634Z,98189.41
2023-03-08T08:33:34.027Z,98177.31
2023-03-08T08:36:05.004Z,98171.88
2023-03-08T08:38:32.605Z,98168.47
2023-03-08T08:41:00.812Z,98174.78
2023-03-08T08:43:28.466Z,98163.81
2023-03-08T08:45:57.676Z,98166.41
2023-03-08T08:48:27.896Z,98159.22
2023-03-08T08:50:55.611Z,98166.47
2023-03-08T08:53:22.947Z,98155.91
2023-03-08T08:55:50.603Z,98151.50
2023-03-08T08:58:18.171Z,98149.31
2023-03-08T09:00:46.051Z,98158.56
2023-03-08T09:03:13.529Z,98144.66
2023-03-08T09:05:44.200Z,98138.13
2023-03-08T09:08:13.296Z,98145.63
2023-03-08T09:10:41.553Z,98139.84
2023-03-08T09:13:08.934Z,98137.97
2023-03-08T09:15:37.408Z,98132.84
2023-03-08T09:18:05.839Z,98135.69
2023-03-08T09:20:33.094Z,98123.56
2023-03-08T09:23:01.710Z,98125.28
2023-03-08T09:25:29.239Z,98114.69
2023-03-08T09:27:56.676Z,98111.88
2023-03-08T09:30:24.018Z,98106.38
2023-03-08T09:32:51.324Z,98099.75
2023-03-08T09:35:19.101Z,98074.13
2023-03-08T09:37:46.354Z,98070.53
2023-03-08T09:40:22.049Z,98075.72
2023-03-08T09:42:49.872Z,98068.06
2023-03-08T09:45:23.558Z,98067.41
2023-03-08T09:48:00.236Z,98060.09
2023-03-08T09:50:42.963Z,98065.88
2023-03-08T09:53:18.547Z,98067.75
2023-03-08T09:55:50.015Z,98053.13
2023-03-08T09:58:25.336Z,98048.56
2023-03-08T10:00:53.491Z,98045.38
2023-03-08T10:03:50.443Z,98039.94
2023-03-08T10:06:23.196Z,98028.53
2023-03-08T10:08:56.473Z,98011.69
2023-03-08T10:11:35.666Z,98018.66
2023-03-08T10:14:13.440Z,97999.66
2023-03-08T10:16:45.969Z,98014.81
2023-03-08T10:19:18.784Z,98010.84
2023-03-08T10:21:47.314Z,98006.25
2023-03-08T10:24:19.042Z,97997.84
2023-03-08T10:26:48.278Z,97994.63
2023-03-08T10:29:15.618Z,98002.06
2023-03-08T10:31:44.588Z,97999.31
2023-03-08T10:34:16.252Z,97994.88
2023-03-08T10:36:49.165Z,97972.16
2023-03-08T10:39:17.046Z,97967.03
2023-03-08T10:41:48.474Z,97972.88
2023-03-08T10:44:30.491Z,97967.66
2023-03-08T10:46:57.825Z,97963.34
2023-03-08T10:49:27.861Z,97952.88
2023-03-08T10:51:58.926Z,97968.34
2023-03-08T10:54:27.791Z,97970.16
2023-03-08T10:56:59.425Z,97946.13
2023-03-08T10:59:32.577Z,97946.34
2023-03-08T11:02:02.404Z,97956.28
2023-03-08T11:04:30.875Z,97932.13
2023-03-08T11:06:59.124Z,97936.91
2023-03-08T11:09:28.670Z,97927.56
2023-03-08T11:11:58.492Z,97915.25
2023-03-08T11:14:27.090Z,97926.09
2023-03-08T11:17:02.358Z,97905.59
2023-03-08T11:20:10.630Z,97900.69
2023-03-08T11:23:02.067Z,97877.22
2023-03-08T11:25:43.213Z,97878.13
2023-03-08T11:28:23.788Z,97875.59
2023-03-08T11:31:01.528Z,97890.41
2023-03-08T11:33:49.083Z,97859.66
2023-03-08T11:36:23.871Z,97864.22
2023-03-08T11:38:58.172Z,97850.09
2023-03-08T11:41:32.869Z,97846.41
2023-03-08T11:44:24.403Z,97854.16
2023-03-08T11:47:08.174Z,97852.09
2023-03-08T11:49:48.937Z,97839.34
2023-03-08T11:52:29.873Z,97830.13
2023-03-08T11:55:11.972Z,97822.47
2023-03-08T11:57:47.118Z,97826.53
2023-03-08T12:00:23.789Z,97818.09
2023-03-08T12:02:53.540Z,97811.94
2023-03-08T12:05:28.361Z,97807.34
2023-03-08T12:08:00.911Z,97799.94
2023-03-08T12:10:32.138Z,97795.28
2023-03-08T12:13:04.908Z,97779.78
2023-03-08T12:15:39.093Z,97785.94
2023-03-08T12:18:20.725Z,97791.16
2023-03-08T12:20:49.957Z,97783.91
2023-03-08T12:23:26.549Z,97770.00
2023-03-08T12:26:00.298Z,97759.78
2023-03-08T12:28:34.100Z,97759.88
2023-03-08T12:31:27.397Z,97755.63
2023-03-08T12:33:57.507Z,97751.03
2023-03-08T12:36:37.403Z,97752.78
2023-03-08T12:39:10.359Z,97733.38
2023-03-08T12:41:37.889Z,97742.50
2023-03-08T12:44:22.237Z,97728.47
2023-03-08T12:47:02.823Z,97735.75
2023-03-08T12:49:33.778Z,97723.09
2023-03-08T12:52:04.679Z,97715.59
2023-03-08T12:54:34.086Z,97714.41
2023-03-08T12:57:04.258Z,97714.78
2023-03-08T12:59:38.614Z,97696.66
2023-03-08T13:02:30.844Z,97693.00
2023-03-08T13:05:30.399Z,97696.06
2023-03-08T13:08:06.184Z,97694.81
2023-03-08T13:10:35.793Z,97688.75
2023-03-08T13:13:38.652Z,97678.06
2023-03-08T13:16:29.304Z,97681.38
2023-03-08T13:19:16.953Z,97675.78
2023-03-08T13:21:49.846Z,97646.38
2023-03-08T13:24:25.287Z,97647.28
2023-03-08T13:27:14.181Z,97648.06
2023-03-08T13:29:44.476Z,97625.63
2023-03-08T13:32:15.789Z,97626.31
2023-03-08T13:34:47.745Z,97621.72
2023-03-08T13:37:22.693Z,97616.44
2023-03-08T13:39:54.271Z,97613.28
2023-03-08T13:42:25.017Z,97612.22
2023-03-08T13:44:53.278Z,97604.47
2023-03-08T13:47:24.746Z,97587.69
2023-03-08T13:49:55.458Z,97580.16
2023-03-08T13:52:26.375Z,97579.75
2023-03-08T13:54:55.824Z,97576.28
2023-03-08T13:57:26.092Z,97580.00
2023-03-08T13:59:55.979Z,97575.00
2023-03-08T14:02:25.997Z,97566.53
2023-03-08T14:04:56.732Z,97567.84
2023-03-08T14:07:26.695Z,97547.78
2023-03-08T14:09:54.617Z,97542.75
2023-03-08T14:12:25.058Z,97538.41
2023-03-08T14:14:55.699Z,97544.44
2023-03-08T14:17:25.793Z,97531.25
2023-03-08T14:19:57.014Z,97536.88
2023-03-08T14:22:38.671Z,97516.28
2023-03-08T14:25:21.881Z,97500.66
2023-03-08T14:27:49.352Z,97501.72
2023-03-08T14:30:19.119Z,97510.72
2023-03-08T14:33:02.647Z,97495.00
2023-03-08T14:35:35.335Z,97495.13
2023-03-08T14:38:03.024Z,97475.06
2023-03-08T14:40:33.180Z,97489.97
2023-03-08T14:43:04.809Z,97492.59
2023-03-08T14:45:37.856Z,97471.84
2023-03-08T14:48:23.984Z,97474.75
2023-03-08T14:50:55.809Z,97469.72
2023-03-08T14:53:29.422Z,97461.53
2023-03-08T14:55:57.033Z,97460.19
2023-03-08T14:58:28.086Z,97449.75
2023-03-08T15:00:57.906Z,97446.34
2023-03-08T15:03:25.392Z,97443.25
2023-03-08T15:05:55.354Z,97435.13
2023-03-08T15:08:23.088Z,97419.91
2023-03-08T15:10:51.239Z,97419.00
2023-03-08T15:13:22.106Z,97431.41
2023-03-08T15:15:50.088Z,97426.13
2023-03-08T15:18:17.748Z,97433.81
2023-03-08T15:20:49.449Z,97412.94
2023-03-08T15:23:20.953Z,97429.22
2023-03-08T15:25:48.496Z,97400.97
2023-03-08T15:28:17.400Z,97394.34
2023-03-08T15:30:45.306Z,97397.91
2023-03-08T15:33:12.715Z,97408.59
2023-03-08T15:35:40.906Z,97398.19
2023-03-08T15:38:08.234Z,97382.22
2023-03-08T15:40:36.946Z,97382.50
2023-03-08T15:43:04.265Z,97376.31
2023-03-08T15:45:32.066Z,97382.91
2023-03-08T15:48:01.397Z,97356.66
2023-03-08T15:50:30.517Z,97365.34
2023-03-08T15:52:58.207Z,97356.94
2023-03-08T15:55:27.454Z,97342.13
2023-03-08T15:57:56.430Z,97347.03
2023-03-08T16:00:25.456Z,97341.22
2023-03-08T16:02:53.938Z,97330.16
2023-03-08T16:05:23.502Z,97327.91
2023-03-08T16:07:53.739Z,97302.81
2023-03-08T16:10:21.257Z,97327.66
2023-03-08T16:12:48.539Z,97326.97
2023-03-08T16:15:17.654Z,97323.00
2023-03-08T16:17:45.700Z,97324.22
2023-03-08T16:20:15.672Z,97314.19
2023-03-08T16:22:42.995Z,97316.44
2023-03-08T16:25:10.853Z,97313.25
2023-03-08T16:27:40.068Z,97309.56
2023-03-08T16:30:08.608Z,97311.16
2023-03-08T16:32:37.295Z,97304.69
2023-03-08T16:35:05.166Z,97308.78
2023-03-08T16:37:32.720Z,97296.78
2023-03-08T16:40:02.275Z,97297.44
2023-03-08T16:42:30.990Z,97298.38
2023-03-08T16:44:58.320Z,97301.66
2023-03-08T16:47:26.896Z,97297.19
2023-03-08T16:49:55.892Z,97287.81
2023-03-08T16:52:23.191Z,97286.09
2023-03-08T16:54:50.569Z,97278.31
2023-03-08T16:57:19.628Z,97277.25
2023-03-08T16:59:48.064Z,97272.91
2023-03-08T17:02:17.014Z,97271.72
2023-03-08T17:04:45.104Z,97258.38
2023-03-08T17:07:13.723Z,97257.31
2023-03-08T17:09:41.061Z,97253.88
2023-03-08T17:12:09.359Z,97252.69
2023-03-08T17:14:37.223Z,97262.06
2023-03-08T17:17:05.156Z,97244.78
2023-03-08T17:19:33.117Z,97257.44
2023-03-08T17:22:00.462Z,97252.28
2023-03-08T17:24:30.653Z,97240.09
2023-03-08T17:26:58.667Z,97241.44
2023-03-08T17:29:26.383Z,97240.88
2023-03-08T17:31:53.861Z,97229.94
2023-03-08T17:34:23.097Z,97226.63
2023-03-08T17:36:50.708Z,97222.13
2023-03-08T17:39:18.527Z,97216.84
2023-03-08T17:41:47.300Z,97221.31
2023-03-08T17:44:14.621Z,97219.97
2023-03-08T17:46:42.524Z,97218.38
2023-03-08T17:49:09.746Z,97205.16
2023-03-08T17:51:36.954Z,97200.09
2023-03-08T17:54:04.979Z,97197.31
2023-03-08T17:56:32.567Z,97198.38
2023-03-08T17:59:01.810Z,97200.03
2023-03-08T18:01:31.138Z,97202.56
2023-03-08T18:03:59.149Z,97191.03
2023-03-08T18:06:29.285Z,97185.22
2023-03-08T18:08:57.573Z,97188.22
2023-03-08T18:11:27.872Z,97180.69
2023-03-08T18:13:55.759Z,97171.44
2023-03-08T18:16:24.364Z,97171.19
2023-03-08T18:18:52.252Z,97177.75
2023-03-08T18:21:20.557Z,97183.56
2023-03-08T18:23:48.056Z,97170.09
2023-03-08T18:26:18.927Z,97166.78
2023-03-08T18:28:46.816Z,97172.59
2023-03-08T18:31:16.583Z,97170.75
2023-03-08T18:33:46.164Z,97165.09
2023-03-08T18:36:13.710Z,97158.63
2023-03-08T18:38:41.765Z,97161.06
2023-03-08T18:41:14.394Z,97173.34
2023-03-08T18:43:41.806Z,97177.31
2023-03-08T18:46:12.576Z,97179.44
2023-03-08T18:48:40.966Z,97161.50
2023-03-08T18:51:10.110Z,97163.72
2023-03-08T18:53:38.100Z,97173.28
2023-03-08T18:56:06.350Z,97193.13
2023-03-08T18:58:34.180Z,97193.50
2023-03-08T19:01:03.147Z,97181.59
2023-03-08T19:03:31.634Z,97189.94
2023-03-08T19:06:01.941Z,97200.66
2023-03-08T19:08:30.781Z,97202.09
2023-03-08T19:10:58.356Z,97202.00
2023-03-08T19:13:25.663Z,97182.47
2023-03-08T19:15:52.934Z,97184.84
2023-03-08T19:18:20.279Z,97180.63
2023-03-08T19:20:47.590Z,97175.47
2023-03-08T19:23:14.760Z,97162.47
2023-03-08T19:26:03.655Z,97170.13
2023-03-08T19:28:30.999Z,97165.91
2023-03-08T19:30:58.491Z,97165.91
2023-03-08T19:33:30.944Z,97153.19
2023-03-08T19:35:59.556Z,97163.53
2023-03-08T19:38:26.861Z,97161.09
2023-03-08T19:40:56.013Z,97173.94
2023-03-08T19:43:23.966Z,97165.78
2023-03-08T19:45:51.355Z,97174.88
2023-03-08T19:48:18.732Z,97177.75
2023-03-08T19:50:46.503Z,97202.97
2023-03-08T19:53:13.968Z,97204.03
2023-03-08T19:55:48.595Z,97208.13
2023-03-08T19:58:18.288Z,97209.19
2023-03-08T20:00:46.260Z,97211.22
2023-03-08T20:03:17.831Z,97224.94
2023-03-08T20:05:46.835Z,97205.19
2023-03-08T20:08:14.653Z,97206.66
2023-03-08T20:10:42.186Z,97220.41
2023-03-08T20:13:09.361Z,97220.28
2023-03-08T20:15:38.335Z,97210.53
2023-03-08T20:18:05.754Z,97213.16
2023-03-08T20:20:33.064Z,97213.97
2023-03-08T20:23:00.182Z,97229.31
2023-03-08T20:25:27.816Z,97225.19
2023-03-08T20:27:55.790Z,97217.09
2023-03-08T20:30:23.226Z,97236.72
2023-03-08T20:32:51.996Z,97231.44
2023-03-08T20:35:19.595Z,97224.50
2023-03-08T20:37:48.524Z,97235.78
2023-03-08T20:40:16.921Z,97219.84
2023-03-08T20:42:44.271Z,97212.56
2023-03-08T20:45:12.450Z,97228.75
2023-03-08T20:47:39.676Z,97228.59
2023-03-08T20:50:10.024Z,97220.97
2023-03-08T20:52:37.212Z,97219.81
2023-03-08T20:55:06.537Z,97221.31
2023-03-08T20:57:33.872Z,97236.81
2023-03-08T21:00:01.113Z,97230.56
2023-03-08T21:02:28.920Z,97240.50
2023-03-08T21:04:57.071Z,97240.34
2023-03-08T21:07:25.769Z,97231.63
2023-03-08T21:09:53.254Z,97246.50
2023-03-08T21:12:20.544Z,97250.97
2023-03-08T21:14:50.854Z,97252.31
2023-03-08T21:17:22.066Z,97257.09
2023-03-08T21:19:49.340Z,97257.47
2023-03-08T21:22:16.639Z,97265.28
2023-03-08T21:24:45.260Z,97248.63
2023-03-08T21:27:12.688Z,97265.31
2023-03-08T21:29:40.287Z,97276.44
2023-03-08T21:32:07.606Z,97263.13
2023-03-08T21:34:34.937Z,97250.94
2023-03-08T21:37:02.223Z,97267.72
2023-03-08T21:39:29.514Z,97273.44
2023-03-08T21:41:58.647Z,97270.56
2023-03-08T21:44:26.099Z,97269.34
2023-03-08T21:46:55.332Z,97271.72
2023-03-08T21:49:24.185Z,97270.81
2023-03-08T21:51:52.915Z,97280.47
2023-03-08T21:54:22.112Z,97275.06
2023-03-08T21:56:49.741Z,97274.94
2023-03-08T21:59:18.732Z,97277.34
2023-03-08T22:01:48.545Z,97275.09
2023-03-08T22:04:16.686Z,97270.50
2023-03-08T22:06:44.182Z,97280.25
2023-03-08T22:09:11.495Z,97287.94
2023-03-08T22:11:38.728Z,97288.34
2023-03-08T22:14:06.665Z,97287.66
2023-03-08T22:16:55.444Z,97305.91
2023-03-08T22:19:22.655Z,97302.72
2023-03-08T22:21:50.089Z,97299.19
2023-03-08T22:24:17.407Z,97301.69
2023-03-08T22:26:44.675Z,97308.53
2023-03-08T22:29:11.872Z,97305.63
2023-03-08T22:31:40.790Z,97319.25
2023-03-08T22:34:08.170Z,97319.50
2023-03-08T22:36:35.528Z,97329.41
2023-03-08T22:39:03.772Z,97327.81
2023-03-08T22:41:31.548Z,97333.34
2023-03-08T22:43:59.342Z,97333.84
2023-03-08T22:46:28.086Z,97326.47
2023-03-08T22:48:58.425Z,97333.22
2023-03-08T22:51:27.821Z,97343.25
2023-03-08T22:53:56.133Z,97341.78
2023-03-08T22:56:25.828Z,97335.72
2023-03-08T22:58:53.403Z,97333.34
2023-03-08T23:01:22.715Z,97357.09
2023-03-08T23:03:53.036Z,97348.53
2023-03-08T23:06:21.947Z,97349.03
2023-03-08T23:08:49.341Z,97351.53
2023-03-08T23:11:17.321Z,97343.63
2023-03-08T23:13:44.713Z,97353.38
2023-03-08T23:16:14.180Z,97360.50
2023-03-08T23:18:41.807Z,97354.56
2023-03-08T23:21:11.345Z,97364.72
2023-03-08T23:23:40.945Z,97358.91
2023-03-08T23:26:16.086Z,97344.91
2023-03-08T23:28:43.581Z,97357.06
2023-03-08T23:31:12.760Z,97362.59
2023-03-08T23:33:40.975Z,97350.19
2023-03-08T23:36:10.844Z,97363.66
2023-03-08T23:38:39.765Z,97366.78
2023-03-08T23:41:08.442Z,97364.53
2023-03-08T23:43:37.481Z,97355.44
2023-03-08T23:46:06.330Z,97359.09
2023-03-08T23:48:33.898Z,97357.53
2023-03-08T23:51:03.560Z,97356.88
2023-03-08T23:53:31.056Z,97355.16
2023-03-08T23:56:00.221Z,97354.63
2023-03-08T23:58:27.961Z,97361.50
